sensor_id;sensor_type;location;lat;lon;timestamp;P1;durP1;ratioP1;P2;durP2;ratioP2
9536;SDS011;4807;48.024;11.726;2023-02-15T00:01:21;11.67;;;6.57;;
9536;SDS011;4807;48.024;11.726;2023-02-15T00:04:31;13.37;;;8.00;;
9536;SDS011;4807;48.024;11.726;2023-02-15T00:07:53;12.50;;;6.97;;
9536;SDS011;4807;48.024;11.726;2023-02-15T00:11:05;7.57;;;6.70;;
9536;SDS011;4807;48.024;11.726;2023-02-15T00:14:16;7.83;;;6.60;;
9536;SDS011;4807;48.024;11.726;2023-02-15T00:17:27;9.47;;;7.07;;
9536;SDS011;4807;48.024;11.726;2023-02-15T00:20:37;42.40;;;8.43;;
9536;SDS011;4807;48.024;11.726;2023-02-15T00:23:45;10.73;;;7.07;;
9536;SDS011;4807;48.024;11.726;2023-02-15T00:26:54;9.37;;;6.67;;
9536;SDS011;4807;48.024;11.726;2023-02-15T00:30:02;8.80;;;7.20;;
9536;SDS011;4807;48.024;11.726;2023-02-15T00:33:12;9.53;;;7.43;;
9536;SDS011;4807;48.024;11.726;2023-02-15T00:36:21;8.83;;;6.90;;
9536;SDS011;4807;48.024;11.726;2023-02-15T00:39:30;10.40;;;7.47;;
9536;SDS011;4807;48.024;11.726;2023-02-15T00:42:38;14.60;;;7.33;;
9536;SDS011;4807;48.024;11.726;2023-02-15T00:45:47;11.23;;;8.33;;
9536;SDS011;4807;48.024;11.726;2023-02-15T00:48:57;9.63;;;7.00;;
9536;SDS011;4807;48.024;11.726;2023-02-15T00:52:06;16.23;;;7.77;;
9536;SDS011;4807;48.024;11.726;2023-02-15T00:55:15;8.17;;;6.67;;
9536;SDS011;4807;48.024;11.726;2023-02-15T00:58:23;8.30;;;6.83;;
9536;SDS011;4807;48.024;11.726;2023-02-15T01:01:32;8.13;;;6.57;;
9536;SDS011;4807;48.024;11.726;2023-02-15T01:04:40;10.17;;;6.50;;
9536;SDS011;4807;48.024;11.726;2023-02-15T01:07:50;8.27;;;5.87;;
9536;SDS011;4807;48.024;11.726;2023-02-15T01:11:02;6.90;;;6.20;;
9536;SDS011;4807;48.024;11.726;2023-02-15T01:14:12;13.87;;;7.00;;
9536;SDS011;4807;48.024;11.726;2023-02-15T01:17:20;7.77;;;6.30;;
9536;SDS011;4807;48.024;11.726;2023-02-15T01:20:29;11.10;;;6.10;;
9536;SDS011;4807;48.024;11.726;2023-02-15T01:23:38;22.57;;;6.27;;
9536;SDS011;4807;48.024;11.726;2023-02-15T01:26:48;8.37;;;5.90;;
9536;SDS011;4807;48.024;11.726;2023-02-15T01:29:56;6.97;;;5.43;;
9536;SDS011;4807;48.024;11.726;2023-02-15T01:33:04;7.77;;;5.20;;
9536;SDS011;4807;48.024;11.726;2023-02-15T01:36:13;7.50;;;5.93;;
9536;SDS011;4807;48.024;11.726;2023-02-15T01:39:25;6.30;;;5.43;;
9536;SDS011;4807;48.024;11.726;2023-02-15T01:42:33;8.20;;;6.10;;
9536;SDS011;4807;48.024;11.726;2023-02-15T01:45:42;6.70;;;5.70;;
9536;SDS011;4807;48.024;11.726;2023-02-15T01:48:54;7.47;;;6.03;;
9536;SDS011;4807;48.024;11.726;2023-02-15T01:52:10;7.03;;;5.13;;
9536;SDS011;4807;48.024;11.726;2023-02-15T01:55:27;6.13;;;4.87;;
9536;SDS011;4807;48.024;11.726;2023-02-15T01:58:41;8.73;;;5.87;;
9536;SDS011;4807;48.024;11.726;2023-02-15T02:01:52;8.47;;;5.87;;
9536;SDS011;4807;48.024;11.726;2023-02-15T02:05:06;7.07;;;5.43;;
9536;SDS011;4807;48.024;11.726;2023-02-15T02:08:15;6.73;;;5.47;;
9536;SDS011;4807;48.024;11.726;2023-02-15T02:11:25;6.70;;;5.23;;
9536;SDS011;4807;48.024;11.726;2023-02-15T02:14:34;9.67;;;4.93;;
9536;SDS011;4807;48.024;11.726;2023-02-15T02:17:47;7.60;;;5.67;;
9536;SDS011;4807;48.024;11.726;2023-02-15T02:21:20;7.90;;;5.40;;
9536;SDS011;4807;48.024;11.726;2023-02-15T02:25:12;6.57;;;5.67;;
9536;SDS011;4807;48.024;11.726;2023-02-15T02:36:48;6.27;;;5.13;;
9536;SDS011;4807;48.024;11.726;2023-02-15T02:40:07;6.63;;;4.60;;
9536;SDS011;4807;48.024;11.726;2023-02-15T02:43:25;6.27;;;4.70;;
9536;SDS011;4807;48.024;11.726;2023-02-15T02:46:45;5.67;;;4.73;;
9536;SDS011;4807;48.024;11.726;2023-02-15T02:50:04;6.40;;;5.13;;
9536;SDS011;4807;48.024;11.726;2023-02-15T02:53:20;8.00;;;5.37;;
9536;SDS011;4807;48.024;11.726;2023-02-15T02:56:29;7.77;;;5.60;;
9536;SDS011;4807;48.024;11.726;2023-02-15T02:59:44;7.87;;;5.47;;
9536;SDS011;4807;48.024;11.726;2023-02-15T03:02:58;8.00;;;5.10;;
9536;SDS011;4807;48.024;11.726;2023-02-15T03:06:15;6.57;;;5.17;;
9536;SDS011;4807;48.024;11.726;2023-02-15T03:09:31;6.93;;;5.10;;
9536;SDS011;4807;48.024;11.726;2023-02-15T03:12:51;7.20;;;5.33;;
9536;SDS011;4807;48.024;11.726;2023-02-15T03:16:00;6.53;;;5.00;;
9536;SDS011;4807;48.024;11.726;2023-02-15T03:19:30;6.57;;;5.17;;
9536;SDS011;4807;48.024;11.726;2023-02-15T03:22:46;5.33;;;4.60;;
9536;SDS011;4807;48.024;11.726;2023-02-15T03:25:58;6.50;;;4.43;;
9536;SDS011;4807;48.024;11.726;2023-02-15T03:29:14;6.50;;;5.43;;
9536;SDS011;4807;48.024;11.726;2023-02-15T03:32:29;8.07;;;5.03;;
9536;SDS011;4807;48.024;11.726;2023-02-15T03:35:43;6.73;;;5.20;;
9536;SDS011;4807;48.024;11.726;2023-02-15T03:39:04;6.53;;;5.27;;
9536;SDS011;4807;48.024;11.726;2023-02-15T03:42:24;7.40;;;5.13;;
9536;SDS011;4807;48.024;11.726;2023-02-15T03:45:38;7.23;;;5.70;;
9536;SDS011;4807;48.024;11.726;2023-02-15T03:49:02;9.07;;;6.23;;
9536;SDS011;4807;48.024;11.726;2023-02-15T03:52:17;8.67;;;5.57;;
9536;SDS011;4807;48.024;11.726;2023-02-15T03:55:29;9.40;;;6.20;;
9536;SDS011;4807;48.024;11.726;2023-02-15T03:58:37;7.90;;;5.60;;
9536;SDS011;4807;48.024;11.726;2023-02-15T04:02:04;8.57;;;6.13;;
9536;SDS011;4807;48.024;11.726;2023-02-15T04:05:23;12.40;;;6.40;;
9536;SDS011;4807;48.024;11.726;2023-02-15T04:08:31;25.00;;;5.93;;
9536;SDS011;4807;48.024;11.726;2023-02-15T04:11:55;6.80;;;5.70;;
9536;SDS011;4807;48.024;11.726;2023-02-15T04:15:03;5.30;;;4.80;;
9536;SDS011;4807;48.024;11.726;2023-02-15T04:18:30;32.03;;;6.13;;
9536;SDS011;4807;48.024;11.726;2023-02-15T04:21:57;9.03;;;5.20;;
9536;SDS011;4807;48.024;11.726;2023-02-15T04:25:23;9.23;;;6.03;;
9536;SDS011;4807;48.024;11.726;2023-02-15T04:28:33;9.07;;;5.30;;
9536;SDS011;4807;48.024;11.726;2023-02-15T04:31:41;7.20;;;5.67;;
9536;SDS011;4807;48.024;11.726;2023-02-15T04:34:50;8.03;;;5.70;;
9536;SDS011;4807;48.024;11.726;2023-02-15T04:37:58;8.13;;;5.90;;
9536;SDS011;4807;48.024;11.726;2023-02-15T04:41:07;7.20;;;5.67;;
9536;SDS011;4807;48.024;11.726;2023-02-15T04:44:19;9.30;;;6.10;;
9536;SDS011;4807;48.024;11.726;2023-02-15T04:47:27;9.50;;;6.40;;
9536;SDS011;4807;48.024;11.726;2023-02-15T04:50:36;8.73;;;5.67;;
9536;SDS011;4807;48.024;11.726;2023-02-15T04:53:44;7.43;;;6.00;;
9536;SDS011;4807;48.024;11.726;2023-02-15T04:56:54;8.80;;;6.07;;
9536;SDS011;4807;48.024;11.726;2023-02-15T05:00:04;12.03;;;5.37;;
9536;SDS011;4807;48.024;11.726;2023-02-15T05:03:15;7.97;;;4.90;;
9536;SDS011;4807;48.024;11.726;2023-02-15T05:06:25;7.43;;;5.00;;
9536;SDS011;4807;48.024;11.726;2023-02-15T05:09:33;9.60;;;6.90;;
9536;SDS011;4807;48.024;11.726;2023-02-15T05:12:41;9.93;;;6.87;;
9536;SDS011;4807;48.024;11.726;2023-02-15T05:15:51;6.27;;;5.30;;
9536;SDS011;4807;48.024;11.726;2023-02-15T05:19:00;13.27;;;5.27;;
9536;SDS011;4807;48.024;11.726;2023-02-15T05:22:09;8.43;;;4.97;;
9536;SDS011;4807;48.024;11.726;2023-02-15T05:25:17;7.83;;;5.97;;
9536;SDS011;4807;48.024;11.726;2023-02-15T05:28:44;6.57;;;5.83;;
9536;SDS011;4807;48.024;11.726;2023-02-15T05:31:53;6.27;;;5.50;;
9536;SDS011;4807;48.024;11.726;2023-02-15T05:35:02;8.13;;;5.17;;
9536;SDS011;4807;48.024;11.726;2023-02-15T05:38:11;8.23;;;5.60;;
9536;SDS011;4807;48.024;11.726;2023-02-15T05:41:19;7.37;;;5.83;;
9536;SDS011;4807;48.024;11.726;2023-02-15T05:44:27;10.17;;;6.40;;
9536;SDS011;4807;48.024;11.726;2023-02-15T05:47:37;13.03;;;6.60;;
9536;SDS011;4807;48.024;11.726;2023-02-15T05:50:45;6.23;;;4.90;;
9536;SDS011;4807;48.024;11.726;2023-02-15T05:54:03;14.17;;;5.30;;
9536;SDS011;4807;48.024;11.726;2023-02-15T05:57:12;6.20;;;4.93;;
9536;SDS011;4807;48.024;11.726;2023-02-15T06:00:20;7.90;;;5.07;;
9536;SDS011;4807;48.024;11.726;2023-02-15T06:03:30;6.43;;;4.97;;
9536;SDS011;4807;48.024;11.726;2023-02-15T06:06:38;11.10;;;5.30;;
9536;SDS011;4807;48.024;11.726;2023-02-15T06:09:46;6.30;;;4.93;;
9536;SDS011;4807;48.024;11.726;2023-02-15T06:12:55;5.87;;;4.43;;
9536;SDS011;4807;48.024;11.726;2023-02-15T06:16:03;5.23;;;4.20;;
9536;SDS011;4807;48.024;11.726;2023-02-15T06:19:13;5.53;;;4.60;;
9536;SDS011;4807;48.024;11.726;2023-02-15T06:22:22;7.20;;;5.00;;
9536;SDS011;4807;48.024;11.726;2023-02-15T06:25:30;7.07;;;5.10;;
9536;SDS011;4807;48.024;11.726;2023-02-15T06:28:41;7.37;;;5.37;;
9536;SDS011;4807;48.024;11.726;2023-02-15T06:31:49;8.00;;;5.50;;
9536;SDS011;4807;48.024;11.726;2023-02-15T06:34:59;7.40;;;6.00;;
9536;SDS011;4807;48.024;11.726;2023-02-15T06:38:08;6.67;;;5.00;;
9536;SDS011;4807;48.024;11.726;2023-02-15T06:41:16;7.20;;;5.23;;
9536;SDS011;4807;48.024;11.726;2023-02-15T06:44:25;6.43;;;5.10;;
9536;SDS011;4807;48.024;11.726;2023-02-15T06:47:33;7.00;;;5.53;;
9536;SDS011;4807;48.024;11.726;2023-02-15T06:50:42;7.27;;;5.10;;
9536;SDS011;4807;48.024;11.726;2023-02-15T06:53:51;6.50;;;4.73;;
9536;SDS011;4807;48.024;11.726;2023-02-15T06:56:59;6.70;;;4.40;;
9536;SDS011;4807;48.024;11.726;2023-02-15T07:00:07;4.83;;;4.00;;
9536;SDS011;4807;48.024;11.726;2023-02-15T07:03:16;5.77;;;3.80;;
9536;SDS011;4807;48.024;11.726;2023-02-15T07:06:26;6.07;;;4.50;;
9536;SDS011;4807;48.024;11.726;2023-02-15T07:09:39;5.30;;;4.47;;
9536;SDS011;4807;48.024;11.726;2023-02-15T07:12:47;5.50;;;4.73;;
9536;SDS011;4807;48.024;11.726;2023-02-15T07:15:56;5.83;;;4.47;;
9536;SDS011;4807;48.024;11.726;2023-02-15T07:19:05;7.83;;;5.73;;
9536;SDS011;4807;48.024;11.726;2023-02-15T07:22:16;7.70;;;5.70;;
9536;SDS011;4807;48.024;11.726;2023-02-15T07:25:24;7.90;;;5.17;;
9536;SDS011;4807;48.024;11.726;2023-02-15T07:28:33;6.40;;;4.80;;
9536;SDS011;4807;48.024;11.726;2023-02-15T07:31:42;8.10;;;5.07;;
9536;SDS011;4807;48.024;11.726;2023-02-15T07:34:51;5.27;;;4.77;;
9536;SDS011;4807;48.024;11.726;2023-02-15T07:38:01;5.30;;;4.67;;
9536;SDS011;4807;48.024;11.726;2023-02-15T07:41:09;5.90;;;4.60;;
9536;SDS011;4807;48.024;11.726;2023-02-15T07:44:19;7.90;;;4.90;;
9536;SDS011;4807;48.024;11.726;2023-02-15T07:47:27;6.00;;;4.47;;
9536;SDS011;4807;48.024;11.726;2023-02-15T07:50:36;4.97;;;3.53;;
9536;SDS011;4807;48.024;11.726;2023-02-15T07:53:45;4.73;;;4.00;;
9536;SDS011;4807;48.024;11.726;2023-02-15T07:56:54;5.47;;;3.77;;
9536;SDS011;4807;48.024;11.726;2023-02-15T08:00:03;6.03;;;4.13;;
9536;SDS011;4807;48.024;11.726;2023-02-15T08:03:17;6.60;;;4.17;;
9536;SDS011;4807;48.024;11.726;2023-02-15T08:06:29;6.23;;;4.57;;
9536;SDS011;4807;48.024;11.726;2023-02-15T08:09:41;6.67;;;4.63;;
9536;SDS011;4807;48.024;11.726;2023-02-15T08:12:49;5.50;;;4.37;;
9536;SDS011;4807;48.024;11.726;2023-02-15T08:15:57;6.57;;;4.87;;
9536;SDS011;4807;48.024;11.726;2023-02-15T08:19:07;6.33;;;4.67;;
9536;SDS011;4807;48.024;11.726;2023-02-15T08:22:17;6.50;;;5.07;;
9536;SDS011;4807;48.024;11.726;2023-02-15T08:25:26;7.73;;;5.37;;
9536;SDS011;4807;48.024;11.726;2023-02-15T08:28:34;6.13;;;4.73;;
9536;SDS011;4807;48.024;11.726;2023-02-15T08:31:45;6.77;;;4.40;;
9536;SDS011;4807;48.024;11.726;2023-02-15T08:34:54;4.87;;;4.30;;
9536;SDS011;4807;48.024;11.726;2023-02-15T08:38:02;5.17;;;4.30;;
9536;SDS011;4807;48.024;11.726;2023-02-15T08:41:14;6.30;;;4.83;;
9536;SDS011;4807;48.024;11.726;2023-02-15T08:44:25;7.93;;;5.07;;
9536;SDS011;4807;48.024;11.726;2023-02-15T08:47:33;5.33;;;4.57;;
9536;SDS011;4807;48.024;11.726;2023-02-15T08:50:41;5.60;;;4.83;;
9536;SDS011;4807;48.024;11.726;2023-02-15T08:53:50;5.57;;;4.33;;
9536;SDS011;4807;48.024;11.726;2023-02-15T08:57:01;6.40;;;4.73;;
9536;SDS011;4807;48.024;11.726;2023-02-15T09:00:10;5.67;;;4.50;;
9536;SDS011;4807;48.024;11.726;2023-02-15T09:03:19;5.43;;;4.73;;
9536;SDS011;4807;48.024;11.726;2023-02-15T09:06:27;6.47;;;4.40;;
9536;SDS011;4807;48.024;11.726;2023-02-15T09:09:36;5.87;;;5.00;;
9536;SDS011;4807;48.024;11.726;2023-02-15T09:12:45;5.30;;;4.27;;
9536;SDS011;4807;48.024;11.726;2023-02-15T09:15:58;5.60;;;4.40;;
9536;SDS011;4807;48.024;11.726;2023-02-15T09:19:08;4.37;;;3.90;;
9536;SDS011;4807;48.024;11.726;2023-02-15T09:22:16;4.70;;;4.20;;
9536;SDS011;4807;48.024;11.726;2023-02-15T09:25:24;5.90;;;4.57;;
9536;SDS011;4807;48.024;11.726;2023-02-15T09:28:33;4.70;;;4.20;;
9536;SDS011;4807;48.024;11.726;2023-02-15T09:31:43;6.37;;;4.63;;
9536;SDS011;4807;48.024;11.726;2023-02-15T09:34:55;4.83;;;4.33;;
9536;SDS011;4807;48.024;11.726;2023-02-15T09:38:03;5.57;;;4.07;;
9536;SDS011;4807;48.024;11.726;2023-02-15T09:41:19;5.53;;;4.43;;
9536;SDS011;4807;48.024;11.726;2023-02-15T09:45:01;8.43;;;4.47;;
9536;SDS011;4807;48.024;11.726;2023-02-15T09:51:52;5.33;;;4.07;;
9536;SDS011;4807;48.024;11.726;2023-02-15T09:55:45;4.23;;;3.77;;
9536;SDS011;4807;48.024;11.726;2023-02-15T09:59:07;5.87;;;5.27;;
9536;SDS011;4807;48.024;11.726;2023-02-15T10:02:36;8.30;;;5.73;;
9536;SDS011;4807;48.024;11.726;2023-02-15T10:06:08;7.13;;;4.43;;
9536;SDS011;4807;48.024;11.726;2023-02-15T10:09:39;5.57;;;4.77;;
9536;SDS011;4807;48.024;11.726;2023-02-15T10:13:09;9.37;;;6.43;;
9536;SDS011;4807;48.024;11.726;2023-02-15T10:16:31;7.23;;;5.13;;
9536;SDS011;4807;48.024;11.726;2023-02-15T10:20:02;4.80;;;4.20;;
9536;SDS011;4807;48.024;11.726;2023-02-15T10:23:29;4.10;;;3.47;;
9536;SDS011;4807;48.024;11.726;2023-02-15T10:27:07;4.23;;;3.63;;
9536;SDS011;4807;48.024;11.726;2023-02-15T10:30:21;4.00;;;3.60;;
9536;SDS011;4807;48.024;11.726;2023-02-15T10:33:44;4.17;;;3.40;;
9536;SDS011;4807;48.024;11.726;2023-02-15T10:36:59;5.87;;;3.30;;
9536;SDS011;4807;48.024;11.726;2023-02-15T10:40:33;6.13;;;3.43;;
9536;SDS011;4807;48.024;11.726;2023-02-15T10:44:00;5.13;;;3.73;;
9536;SDS011;4807;48.024;11.726;2023-02-15T10:51:15;4.30;;;3.30;;
9536;SDS011;4807;48.024;11.726;2023-02-15T10:54:36;3.40;;;3.00;;
9536;SDS011;4807;48.024;11.726;2023-02-15T10:57:55;2.83;;;2.60;;
9536;SDS011;4807;48.024;11.726;2023-02-15T11:01:13;4.77;;;3.23;;
9536;SDS011;4807;48.024;11.726;2023-02-15T11:04:39;3.27;;;2.97;;
9536;SDS011;4807;48.024;11.726;2023-02-15T11:08:00;4.73;;;3.07;;
9536;SDS011;4807;48.024;11.726;2023-02-15T11:11:19;4.03;;;3.63;;
9536;SDS011;4807;48.024;11.726;2023-02-15T11:14:34;4.30;;;2.70;;
9536;SDS011;4807;48.024;11.726;2023-02-15T11:17:51;4.83;;;3.20;;
9536;SDS011;4807;48.024;11.726;2023-02-15T11:21:07;3.50;;;3.20;;
9536;SDS011;4807;48.024;11.726;2023-02-15T11:24:24;3.63;;;3.27;;
9536;SDS011;4807;48.024;11.726;2023-02-15T11:27:38;3.80;;;3.00;;
9536;SDS011;4807;48.024;11.726;2023-02-15T11:30:48;4.63;;;3.33;;
9536;SDS011;4807;48.024;11.726;2023-02-15T11:34:03;4.20;;;3.33;;
9536;SDS011;4807;48.024;11.726;2023-02-15T11:37:24;4.30;;;3.53;;
9536;SDS011;4807;48.024;11.726;2023-02-15T11:40:44;6.50;;;4.00;;
9536;SDS011;4807;48.024;11.726;2023-02-15T11:43:59;3.90;;;3.50;;
9536;SDS011;4807;48.024;11.726;2023-02-15T11:47:14;5.70;;;4.07;;
9536;SDS011;4807;48.024;11.726;2023-02-15T11:50:23;6.43;;;3.80;;
9536;SDS011;4807;48.024;11.726;2023-02-15T11:53:35;7.33;;;4.70;;
9536;SDS011;4807;48.024;11.726;2023-02-15T11:56:45;9.00;;;4.60;;
9536;SDS011;4807;48.024;11.726;2023-02-15T11:59:58;3.70;;;3.27;;
9536;SDS011;4807;48.024;11.726;2023-02-15T12:03:18;8.17;;;4.90;;
9536;SDS011;4807;48.024;11.726;2023-02-15T12:06:37;4.33;;;3.93;;
9536;SDS011;4807;48.024;11.726;2023-02-15T12:09:54;8.03;;;4.13;;
9536;SDS011;4807;48.024;11.726;2023-02-15T12:13:13;5.83;;;4.37;;
9536;SDS011;4807;48.024;11.726;2023-02-15T12:16:26;7.57;;;4.70;;
9536;SDS011;4807;48.024;11.726;2023-02-15T12:19:39;6.63;;;4.80;;
9536;SDS011;4807;48.024;11.726;2023-02-15T12:22:48;9.10;;;4.60;;
9536;SDS011;4807;48.024;11.726;2023-02-15T12:26:00;4.97;;;4.00;;
9536;SDS011;4807;48.024;11.726;2023-02-15T12:29:12;5.43;;;3.53;;
9536;SDS011;4807;48.024;11.726;2023-02-15T12:32:28;7.43;;;4.23;;
9536;SDS011;4807;48.024;11.726;2023-02-15T12:35:43;6.30;;;4.03;;
9536;SDS011;4807;48.024;11.726;2023-02-15T12:39:03;6.50;;;3.73;;
9536;SDS011;4807;48.024;11.726;2023-02-15T12:42:26;5.50;;;3.73;;
9536;SDS011;4807;48.024;11.726;2023-02-15T12:45:47;5.87;;;3.83;;
9536;SDS011;4807;48.024;11.726;2023-02-15T12:49:07;5.37;;;3.87;;
9536;SDS011;4807;48.024;11.726;2023-02-15T12:52:26;5.47;;;3.60;;
9536;SDS011;4807;48.024;11.726;2023-02-15T12:55:34;6.93;;;4.20;;
9536;SDS011;4807;48.024;11.726;2023-02-15T12:58:50;5.93;;;4.17;;
9536;SDS011;4807;48.024;11.726;2023-02-15T13:02:13;5.77;;;3.90;;
9536;SDS011;4807;48.024;11.726;2023-02-15T13:05:32;5.63;;;3.77;;
9536;SDS011;4807;48.024;11.726;2023-02-15T13:08:45;8.40;;;3.77;;
9536;SDS011;4807;48.024;11.726;2023-02-15T13:12:03;5.60;;;4.17;;
9536;SDS011;4807;48.024;11.726;2023-02-15T13:15:23;4.53;;;3.70;;
9536;SDS011;4807;48.024;11.726;2023-02-15T13:18:42;5.03;;;3.77;;
9536;SDS011;4807;48.024;11.726;2023-02-15T13:21:54;5.07;;;3.77;;
9536;SDS011;4807;48.024;11.726;2023-02-15T13:25:12;4.53;;;3.97;;
9536;SDS011;4807;48.024;11.726;2023-02-15T13:28:27;4.87;;;3.90;;
9536;SDS011;4807;48.024;11.726;2023-02-15T13:31:47;5.57;;;4.53;;
9536;SDS011;4807;48.024;11.726;2023-02-15T13:34:58;4.57;;;3.90;;
9536;SDS011;4807;48.024;11.726;2023-02-15T13:38:16;5.40;;;4.03;;
9536;SDS011;4807;48.024;11.726;2023-02-15T13:41:56;3.93;;;3.63;;
9536;SDS011;4807;48.024;11.726;2023-02-15T13:45:19;4.17;;;3.40;;
9536;SDS011;4807;48.024;11.726;2023-02-15T13:48:44;5.00;;;4.10;;
9536;SDS011;4807;48.024;11.726;2023-02-15T13:52:08;3.40;;;3.10;;
9536;SDS011;4807;48.024;11.726;2023-02-15T13:55:33;3.83;;;3.40;;
9536;SDS011;4807;48.024;11.726;2023-02-15T13:58:55;4.67;;;3.50;;
9536;SDS011;4807;48.024;11.726;2023-02-15T14:02:44;4.97;;;3.70;;
9536;SDS011;4807;48.024;11.726;2023-02-15T14:06:37;4.70;;;3.47;;
9536;SDS011;4807;48.024;11.726;2023-02-15T14:10:11;3.30;;;3.00;;
9536;SDS011;4807;48.024;11.726;2023-02-15T14:13:44;4.00;;;3.30;;
9536;SDS011;4807;48.024;11.726;2023-02-15T14:17:34;5.13;;;3.57;;
9536;SDS011;4807;48.024;11.726;2023-02-15T14:21:01;5.90;;;4.20;;
9536;SDS011;4807;48.024;11.726;2023-02-15T14:24:19;4.67;;;3.90;;
9536;SDS011;4807;48.024;11.726;2023-02-15T14:27:41;5.07;;;4.17;;
9536;SDS011;4807;48.024;11.726;2023-02-15T14:31:04;7.03;;;3.83;;
9536;SDS011;4807;48.024;11.726;2023-02-15T14:34:20;5.00;;;4.00;;
9536;SDS011;4807;48.024;11.726;2023-02-15T14:37:36;4.23;;;3.70;;
9536;SDS011;4807;48.024;11.726;2023-02-15T14:40:54;4.07;;;3.70;;
9536;SDS011;4807;48.024;11.726;2023-02-15T14:44:15;6.27;;;4.60;;
9536;SDS011;4807;48.024;11.726;2023-02-15T14:47:36;5.00;;;4.47;;
9536;SDS011;4807;48.024;11.726;2023-02-15T14:50:51;4.27;;;3.67;;
9536;SDS011;4807;48.024;11.726;2023-02-15T14:53:59;5.47;;;4.13;;
9536;SDS011;4807;48.024;11.726;2023-02-15T14:57:21;5.87;;;4.13;;
9536;SDS011;4807;48.024;11.726;2023-02-15T15:00:36;6.20;;;4.47;;
9536;SDS011;4807;48.024;11.726;2023-02-15T15:03:49;6.33;;;5.07;;
9536;SDS011;4807;48.024;11.726;2023-02-15T15:07:08;6.67;;;4.87;;
9536;SDS011;4807;48.024;11.726;2023-02-15T15:10:38;5.30;;;4.30;;
9536;SDS011;4807;48.024;11.726;2023-02-15T15:13:53;5.73;;;5.03;;
9536;SDS011;4807;48.024;11.726;2023-02-15T15:17:04;6.13;;;4.87;;
9536;SDS011;4807;48.024;11.726;2023-02-15T15:20:19;5.40;;;4.50;;
9536;SDS011;4807;48.024;11.726;2023-02-15T15:23:51;6.60;;;5.27;;
9536;SDS011;4807;48.024;11.726;2023-02-15T15:31:02;8.33;;;5.67;;
9536;SDS011;4807;48.024;11.726;2023-02-15T15:34:40;7.30;;;6.00;;
9536;SDS011;4807;48.024;11.726;2023-02-15T15:38:19;7.53;;;5.77;;
9536;SDS011;4807;48.024;11.726;2023-02-15T15:41:53;5.63;;;5.13;;
9536;SDS011;4807;48.024;11.726;2023-02-15T15:49:00;11.10;;;8.23;;
9536;SDS011;4807;48.024;11.726;2023-02-15T15:52:14;8.97;;;7.53;;
9536;SDS011;4807;48.024;11.726;2023-02-15T15:55:27;11.47;;;8.53;;
9536;SDS011;4807;48.024;11.726;2023-02-15T15:58:41;10.93;;;8.90;;
9536;SDS011;4807;48.024;11.726;2023-02-15T16:01:55;11.37;;;9.07;;
9536;SDS011;4807;48.024;11.726;2023-02-15T16:05:13;11.37;;;8.70;;
9536;SDS011;4807;48.024;11.726;2023-02-15T16:08:25;11.93;;;8.40;;
9536;SDS011;4807;48.024;11.726;2023-02-15T16:11:41;11.87;;;9.07;;
9536;SDS011;4807;48.024;11.726;2023-02-15T16:14:51;12.77;;;9.10;;
9536;SDS011;4807;48.024;11.726;2023-02-15T16:17:59;13.33;;;9.70;;
9536;SDS011;4807;48.024;11.726;2023-02-15T16:21:13;12.27;;;9.73;;
9536;SDS011;4807;48.024;11.726;2023-02-15T16:24:32;16.53;;;10.67;;
9536;SDS011;4807;48.024;11.726;2023-02-15T16:27:55;13.40;;;10.50;;
9536;SDS011;4807;48.024;11.726;2023-02-15T16:31:04;14.73;;;10.70;;
9536;SDS011;4807;48.024;11.726;2023-02-15T16:34:19;16.60;;;10.37;;
9536;SDS011;4807;48.024;11.726;2023-02-15T16:37:28;12.47;;;9.67;;
9536;SDS011;4807;48.024;11.726;2023-02-15T16:40:46;12.00;;;9.43;;
9536;SDS011;4807;48.024;11.726;2023-02-15T16:44:03;14.50;;;9.37;;
9536;SDS011;4807;48.024;11.726;2023-02-15T16:47:17;14.67;;;10.30;;
9536;SDS011;4807;48.024;11.726;2023-02-15T16:50:33;16.37;;;10.20;;
9536;SDS011;4807;48.024;11.726;2023-02-15T16:53:45;15.17;;;10.07;;
9536;SDS011;4807;48.024;11.726;2023-02-15T16:56:55;13.90;;;9.57;;
9536;SDS011;4807;48.024;11.726;2023-02-15T17:00:06;19.53;;;12.07;;
9536;SDS011;4807;48.024;11.726;2023-02-15T17:03:27;19.93;;;13.40;;
9536;SDS011;4807;48.024;11.726;2023-02-15T17:06:36;18.83;;;12.03;;
9536;SDS011;4807;48.024;11.726;2023-02-15T17:09:48;17.73;;;12.10;;
9536;SDS011;4807;48.024;11.726;2023-02-15T17:13:00;20.80;;;11.20;;
9536;SDS011;4807;48.024;11.726;2023-02-15T17:19:46;19.73;;;10.97;;
9536;SDS011;4807;48.024;11.726;2023-02-15T17:22:57;15.07;;;11.17;;
9536;SDS011;4807;48.024;11.726;2023-02-15T17:26:10;14.70;;;11.30;;
9536;SDS011;4807;48.024;11.726;2023-02-15T17:29:28;15.83;;;10.77;;
9536;SDS011;4807;48.024;11.726;2023-02-15T17:32:53;16.83;;;11.50;;
9536;SDS011;4807;48.024;11.726;2023-02-15T17:36:06;16.60;;;11.53;;
9536;SDS011;4807;48.024;11.726;2023-02-15T17:39:20;18.80;;;11.43;;
9536;SDS011;4807;48.024;11.726;2023-02-15T17:42:29;17.97;;;11.07;;
9536;SDS011;4807;48.024;11.726;2023-02-15T17:45:38;16.40;;;11.23;;
9536;SDS011;4807;48.024;11.726;2023-02-15T17:48:55;19.27;;;13.37;;
9536;SDS011;4807;48.024;11.726;2023-02-15T17:52:03;19.27;;;12.77;;
9536;SDS011;4807;48.024;11.726;2023-02-15T17:55:14;21.53;;;13.27;;
9536;SDS011;4807;48.024;11.726;2023-02-15T17:58:44;18.27;;;13.13;;
9536;SDS011;4807;48.024;11.726;2023-02-15T18:01:52;18.00;;;12.30;;
9536;SDS011;4807;48.024;11.726;2023-02-15T18:05:20;18.87;;;11.97;;
9536;SDS011;4807;48.024;11.726;2023-02-15T18:08:46;20.53;;;12.73;;
9536;SDS011;4807;48.024;11.726;2023-02-15T18:12:17;15.93;;;11.07;;
9536;SDS011;4807;48.024;11.726;2023-02-15T18:15:28;16.33;;;11.23;;
9536;SDS011;4807;48.024;11.726;2023-02-15T18:18:36;18.17;;;12.67;;
9536;SDS011;4807;48.024;11.726;2023-02-15T18:21:46;19.47;;;14.63;;
9536;SDS011;4807;48.024;11.726;2023-02-15T18:24:57;23.70;;;15.73;;
9536;SDS011;4807;48.024;11.726;2023-02-15T18:28:06;19.20;;;13.43;;
9536;SDS011;4807;48.024;11.726;2023-02-15T18:31:15;19.63;;;12.57;;
9536;SDS011;4807;48.024;11.726;2023-02-15T18:34:27;18.07;;;12.60;;
9536;SDS011;4807;48.024;11.726;2023-02-15T18:37:41;16.47;;;10.97;;
9536;SDS011;4807;48.024;11.726;2023-02-15T18:40:50;19.83;;;12.30;;
9536;SDS011;4807;48.024;11.726;2023-02-15T18:43:58;16.50;;;11.67;;
9536;SDS011;4807;48.024;11.726;2023-02-15T18:47:06;17.20;;;10.80;;
9536;SDS011;4807;48.024;11.726;2023-02-15T18:50:16;15.37;;;9.97;;
9536;SDS011;4807;48.024;11.726;2023-02-15T18:53:28;17.70;;;12.60;;
9536;SDS011;4807;48.024;11.726;2023-02-15T18:56:36;20.00;;;11.90;;
9536;SDS011;4807;48.024;11.726;2023-02-15T18:59:44;15.97;;;11.13;;
9536;SDS011;4807;48.024;11.726;2023-02-15T19:02:53;17.57;;;13.33;;
9536;SDS011;4807;48.024;11.726;2023-02-15T19:06:03;17.53;;;13.03;;
9536;SDS011;4807;48.024;11.726;2023-02-15T19:09:15;19.13;;;12.80;;
9536;SDS011;4807;48.024;11.726;2023-02-15T19:12:27;27.50;;;14.60;;
9536;SDS011;4807;48.024;11.726;2023-02-15T19:15:36;17.70;;;12.83;;
9536;SDS011;4807;48.024;11.726;2023-02-15T19:18:44;17.93;;;12.97;;
9536;SDS011;4807;48.024;11.726;2023-02-15T19:21:53;19.30;;;12.60;;
9536;SDS011;4807;48.024;11.726;2023-02-15T19:25:04;19.70;;;13.83;;
9536;SDS011;4807;48.024;11.726;2023-02-15T19:28:14;16.77;;;10.93;;
9536;SDS011;4807;48.024;11.726;2023-02-15T19:31:27;21.63;;;14.10;;
9536;SDS011;4807;48.024;11.726;2023-02-15T19:34:35;18.67;;;11.90;;
9536;SDS011;4807;48.024;11.726;2023-02-15T19:37:46;19.07;;;13.13;;
9536;SDS011;4807;48.024;11.726;2023-02-15T19:40:59;17.47;;;11.80;;
9536;SDS011;4807;48.024;11.726;2023-02-15T19:44:12;19.57;;;13.47;;
9536;SDS011;4807;48.024;11.726;2023-02-15T19:47:20;20.87;;;13.23;;
9536;SDS011;4807;48.024;11.726;2023-02-15T19:50:32;19.13;;;12.50;;
9536;SDS011;4807;48.024;11.726;2023-02-15T19:54:15;15.27;;;10.80;;
9536;SDS011;4807;48.024;11.726;2023-02-15T19:57:42;21.73;;;10.33;;
9536;SDS011;4807;48.024;11.726;2023-02-15T20:00:50;12.70;;;10.30;;
9536;SDS011;4807;48.024;11.726;2023-02-15T20:03:58;16.10;;;11.10;;
9536;SDS011;4807;48.024;11.726;2023-02-15T20:07:08;18.50;;;10.97;;
9536;SDS011;4807;48.024;11.726;2023-02-15T20:10:27;16.40;;;10.20;;